createdAt,value
2023-04-01T00:00:58.277Z,12.95
2023-04-01T00:03:28.441Z,11.93
2023-04-01T00:05:59.203Z,10.75
2023-04-01T00:08:32.247Z,10.85
2023-04-01T00:13:33.571Z,10.82
2023-04-01T00:16:03.371Z,11.43
2023-04-01T00:18:31.769Z,12.23
2023-04-01T00:20:59.014Z,11.90
2023-04-01T00:23:30.141Z,12.05
2023-04-01T00:26:04.373Z,12.07
2023-04-01T00:28:35.087Z,12.35
2023-04-01T00:31:11.491Z,11.40
2023-04-01T00:33:40.118Z,10.70
2023-04-01T00:36:19.855Z,10.77
2023-04-01T00:38:48.073Z,9.50
2023-04-01T00:41:18.108Z,10.63
2023-04-01T00:43:48.463Z,10.13
2023-04-01T00:46:15.855Z,9.95
2023-04-01T00:48:48.765Z,9.82
2023-04-01T00:51:22.059Z,11.35
2023-04-01T00:56:28.005Z,9.30
2023-04-01T00:59:01.738Z,10.32
2023-04-01T01:01:31.702Z,9.75
2023-04-01T01:03:59.215Z,10.35
2023-04-01T01:06:51.832Z,10.35
2023-04-01T01:09:37.727Z,9.63
2023-04-01T01:12:13.174Z,10.43
2023-04-01T01:15:08.733Z,9.98
2023-04-01T01:17:44.992Z,10.38
2023-04-01T01:20:36.731Z,10.10
2023-04-01T01:23:32.066Z,10.90
2023-04-01T01:26:27.484Z,11.30
2023-04-01T01:29:09.920Z,9.65
2023-04-01T01:31:58.703Z,9.80
2023-04-01T01:34:55.567Z,10.38
2023-04-01T01:37:26.932Z,10.13
2023-04-01T01:40:08.392Z,9.70
2023-04-01T01:42:40.903Z,10.23
2023-04-01T01:45:11.466Z,10.35
2023-04-01T01:47:39.147Z,10.15
2023-04-01T01:50:09.641Z,9.50
2023-04-01T01:52:37.682Z,9.65
2023-04-01T01:55:35.376Z,9.38
2023-04-01T01:58:46.597Z,10.25
2023-04-01T02:01:20.442Z,10.13
2023-04-01T02:03:49.591Z,10.02
2023-04-01T02:06:23.223Z,10.00
2023-04-01T02:08:53.997Z,10.25
2023-04-01T02:11:29.497Z,11.55
2023-04-01T02:14:14.471Z,10.85
2023-04-01T02:16:46.602Z,10.75
2023-04-01T02:19:15.629Z,10.48
2023-04-01T02:21:44.316Z,11.20
2023-04-01T02:24:16.189Z,10.80
2023-04-01T02:26:45.061Z,10.65
2023-04-01T02:29:13.701Z,10.80
2023-04-01T02:31:42.875Z,11.40
2023-04-01T02:34:10.617Z,10.80
2023-04-01T02:36:39.235Z,11.60
2023-04-01T02:39:07.295Z,10.48
2023-04-01T02:41:44.285Z,10.20
2023-04-01T02:44:14.017Z,10.38
2023-04-01T02:46:41.508Z,11.23
2023-04-01T02:49:09.060Z,11.75
2023-04-01T02:51:36.473Z,11.02
2023-04-01T02:54:03.899Z,11.45
2023-04-01T02:56:31.415Z,10.45
2023-04-01T02:58:58.923Z,11.07
2023-04-01T03:01:26.417Z,11.43
2023-04-01T03:03:53.651Z,12.23
2023-04-01T03:06:20.964Z,10.55
2023-04-01T03:08:48.167Z,11.70
2023-04-01T03:11:15.820Z,11.65
2023-04-01T03:13:43.275Z,11.60
2023-04-01T03:16:11.507Z,10.73
2023-04-01T03:18:38.713Z,10.60
2023-04-01T03:21:23.986Z,11.27
2023-04-01T03:23:51.825Z,11.10
2023-04-01T03:26:19.414Z,11.95
2023-04-01T03:28:46.770Z,11.25
2023-04-01T03:31:14.770Z,11.88
2023-04-01T03:33:49.078Z,11.70
2023-04-01T03:36:16.449Z,11.20
2023-04-01T03:38:44.618Z,10.65
2023-04-01T03:41:16.730Z,11.07
2023-04-01T03:43:45.765Z,10.52
2023-04-01T03:46:18.513Z,10.80
2023-04-01T03:48:45.999Z,11.18
2023-04-01T03:51:13.113Z,11.50
2023-04-01T03:53:40.308Z,11.32
2023-04-01T03:56:08.559Z,11.38
2023-04-01T03:58:37.980Z,11.15
2023-04-01T04:01:24.461Z,10.93
2023-04-01T04:03:55.634Z,10.30
2023-04-01T04:06:24.362Z,10.05
2023-04-01T04:08:52.982Z,11.10
2023-04-01T04:11:23.137Z,10.68
2023-04-01T04:13:53.406Z,9.82
2023-04-01T04:16:21.411Z,10.07
2023-04-01T04:18:55.600Z,10.52
2023-04-01T04:21:23.163Z,10.02
2023-04-01T04:23:51.750Z,10.82
2023-04-01T04:26:20.192Z,9.45
2023-04-01T04:28:58.905Z,9.60
2023-04-01T04:31:27.795Z,9.82
2023-04-01T04:33:57.679Z,10.02
2023-04-01T04:36:26.060Z,10.73
2023-04-01T04:38:53.656Z,9.55
2023-04-01T04:41:23.250Z,10.38
2023-04-01T04:43:53.873Z,10.23
2023-04-01T04:46:22.190Z,9.85
2023-04-01T04:48:53.802Z,11.30
2023-04-01T04:51:21.952Z,10.45
2023-04-01T04:53:51.499Z,10.35
2023-04-01T04:56:22.817Z,10.82
2023-04-01T04:58:58.608Z,11.00
2023-04-01T05:01:41.252Z,10.50
2023-04-01T05:04:08.688Z,10.40
2023-04-01T05:06:36.227Z,10.52
2023-04-01T05:09:04.093Z,10.77
2023-04-01T05:11:31.515Z,10.27
2023-04-01T05:13:58.926Z,10.40
2023-04-01T05:16:26.468Z,10.65
2023-04-01T05:18:53.884Z,11.23
2023-04-01T05:21:21.682Z,11.52
2023-04-01T05:23:49.348Z,10.80
2023-04-01T05:26:16.714Z,10.30
2023-04-01T05:28:44.058Z,11.10
2023-04-01T05:31:11.568Z,11.85
2023-04-01T05:33:40.948Z,11.32
2023-04-01T05:36:16.996Z,10.50
2023-04-01T05:38:46.912Z,11.27
2023-04-01T05:41:16.289Z,10.65
2023-04-01T05:43:46.776Z,11.15
2023-04-01T05:46:33.254Z,10.30
2023-04-01T05:49:16.760Z,10.43
2023-04-01T05:51:44.193Z,10.90
2023-04-01T05:54:11.463Z,10.68
2023-04-01T05:56:39.440Z,11.77
2023-04-01T05:59:06.804Z,13.95
2023-04-01T06:01:34.129Z,15.20
2023-04-01T06:04:01.709Z,14.93
2023-04-01T06:06:32.903Z,15.90
2023-04-01T06:09:20.634Z,16.50
2023-04-01T06:12:24.079Z,16.63
2023-04-01T06:15:07.968Z,13.95
2023-04-01T06:18:11.458Z,13.55
2023-04-01T06:20:38.838Z,13.13
2023-04-01T06:23:29.353Z,12.63
2023-04-01T06:26:40.721Z,12.27
2023-04-01T06:29:29.900Z,12.75
2023-04-01T06:32:23.033Z,12.65
2023-04-01T06:35:18.545Z,13.00
2023-04-01T06:38:05.001Z,13.27
2023-04-01T06:40:49.903Z,13.65
2023-04-01T06:43:26.329Z,12.40
2023-04-01T06:46:32.288Z,12.88
2023-04-01T06:49:53.121Z,12.55
2023-04-01T06:53:19.022Z,12.93
2023-04-01T06:56:21.138Z,12.65
2023-04-01T06:59:07.085Z,13.32
2023-04-01T07:01:40.609Z,12.07
2023-04-01T07:04:16.472Z,14.00
2023-04-01T07:06:55.770Z,12.43
2023-04-01T07:09:36.893Z,14.52
2023-04-01T07:12:37.544Z,13.52
2023-04-01T07:15:29.537Z,14.77
2023-04-01T07:18:06.648Z,13.02
2023-04-01T07:20:38.218Z,12.68
2023-04-01T07:23:18.295Z,12.27
2023-04-01T07:26:23.727Z,13.40
2023-04-01T07:29:12.621Z,11.45
2023-04-01T07:32:09.020Z,11.50
2023-04-01T07:35:19.177Z,11.60
2023-04-01T07:38:05.862Z,11.57
2023-04-01T07:40:38.999Z,11.30
2023-04-01T07:43:28.454Z,12.32
2023-04-01T07:46:23.311Z,12.88
2023-04-01T07:49:05.070Z,12.15
2023-04-01T07:51:38.384Z,11.02
2023-04-01T07:54:22.931Z,11.73
2023-04-01T07:57:11.381Z,12.68
2023-04-01T08:00:21.814Z,11.38
2023-04-01T08:03:31.726Z,12.10
2023-04-01T08:06:33.416Z,11.38
2023-04-01T08:09:19.974Z,12.20
2023-04-01T08:12:25.629Z,11.43
2023-04-01T08:15:45.260Z,12.48
2023-04-01T08:18:52.945Z,11.18
2023-04-01T08:21:29.943Z,11.27
2023-04-01T08:23:59.518Z,11.65
2023-04-01T08:26:27.281Z,12.40
2023-04-01T08:29:07.943Z,11.07
2023-04-01T08:31:35.608Z,11.50
2023-04-01T08:34:07.187Z,12.15
2023-04-01T08:36:41.451Z,12.85
2023-04-01T08:39:21.803Z,11.85
2023-04-01T08:41:50.762Z,11.75
2023-04-01T08:45:14.749Z,11.48
2023-04-01T08:48:10.369Z,11.63
2023-04-01T08:53:47.518Z,10.65
2023-04-01T08:56:41.485Z,10.40
2023-04-01T08:59:24.557Z,10.82
2023-04-01T09:02:49.435Z,10.52
2023-04-01T09:06:01.065Z,9.35
2023-04-01T09:08:53.998Z,9.75
2023-04-01T09:11:21.321Z,9.75
2023-04-01T09:14:14.824Z,9.80
2023-04-01T09:16:49.880Z,8.98
2023-04-01T09:19:51.656Z,8.45
2023-04-01T09:22:52.167Z,8.68
2023-04-01T09:25:31.344Z,9.15
2023-04-01T09:28:21.787Z,8.48
2023-04-01T09:31:22.158Z,8.98
2023-04-01T09:34:54.158Z,7.53
2023-04-01T09:37:36.628Z,7.35
2023-04-01T09:40:10.180Z,7.68
2023-04-01T09:42:50.721Z,7.07
2023-04-01T09:45:45.191Z,7.32
2023-04-01T09:48:39.913Z,6.88
2023-04-01T09:51:11.106Z,7.20
2023-04-01T09:53:53.794Z,7.35
2023-04-01T09:56:34.302Z,6.80
2023-04-01T09:59:32.769Z,7.43
2023-04-01T10:02:54.606Z,7.07
2023-04-01T10:06:00.410Z,6.82
2023-04-01T10:09:01.794Z,7.47
2023-04-01T10:11:35.085Z,7.45
2023-04-01T10:14:21.121Z,7.00
2023-04-01T10:17:03.921Z,6.25
2023-04-01T10:20:01.566Z,6.22
2023-04-01T10:23:05.811Z,7.40
2023-04-01T10:25:44.100Z,7.20
2023-04-01T10:28:19.966Z,7.38
2023-04-01T10:31:52.973Z,6.97
2023-04-01T10:34:29.392Z,6.53
2023-04-01T10:37:21.938Z,6.88
2023-04-01T10:40:27.960Z,7.13
2023-04-01T10:43:42.535Z,5.53
2023-04-01T10:46:23.245Z,5.40
2023-04-01T10:49:06.142Z,5.75
2023-04-01T10:52:06.209Z,5.53
2023-04-01T10:55:09.038Z,5.78
2023-04-01T10:58:22.381Z,5.88
2023-04-01T11:02:11.901Z,6.78
2023-04-01T11:05:46.390Z,5.72
2023-04-01T11:08:49.407Z,5.28
2023-04-01T11:11:56.323Z,6.10
2023-04-01T11:14:23.996Z,4.88
2023-04-01T11:17:01.806Z,5.18
2023-04-01T11:19:39.718Z,5.60
2023-04-01T11:22:29.313Z,5.65
2023-04-01T11:25:21.289Z,5.35
2023-04-01T11:28:45.417Z,5.03
2023-04-01T11:31:26.559Z,5.60
2023-04-01T11:34:17.843Z,6.20
2023-04-01T11:37:04.117Z,5.95
2023-04-01T11:39:45.347Z,6.03
2023-04-01T11:42:47.790Z,5.30
2023-04-01T11:45:41.062Z,5.70
2023-04-01T11:48:47.939Z,5.35
2023-04-01T11:51:27.208Z,5.68
2023-04-01T11:54:26.434Z,6.35
2023-04-01T11:57:05.945Z,5.53
2023-04-01T11:59:57.945Z,5.45
2023-04-01T12:02:49.587Z,5.80
2023-04-01T12:05:32.548Z,5.90
2023-04-01T12:08:20.285Z,5.97
2023-04-01T12:10:59.531Z,5.28
2023-04-01T12:13:49.818Z,5.18
2023-04-01T12:16:36.032Z,5.05
2023-04-01T12:19:15.023Z,5.72
2023-04-01T12:21:50.028Z,6.60
2023-04-01T12:24:34.565Z,6.47
2023-04-01T12:27:53.510Z,5.25
2023-04-01T12:30:39.210Z,5.70
2023-04-01T12:33:36.555Z,6.10
2023-04-01T12:36:27.747Z,5.82
2023-04-01T12:39:24.508Z,5.60
2023-04-01T12:42:06.678Z,5.75
2023-04-01T12:44:52.964Z,5.00
2023-04-01T12:47:50.758Z,5.03
2023-04-01T12:50:25.382Z,4.28
2023-04-01T12:53:07.355Z,5.63
2023-04-01T12:55:39.031Z,5.63
2023-04-01T12:58:45.410Z,5.80
2023-04-01T13:01:25.934Z,5.60
2023-04-01T13:04:15.430Z,5.20
2023-04-01T13:06:58.931Z,5.10
2023-04-01T13:09:38.492Z,7.03
2023-04-01T13:12:20.573Z,5.00
2023-04-01T13:15:15.205Z,5.28
2023-04-01T13:18:20.470Z,5.30
2023-04-01T13:21:11.402Z,4.85
2023-04-01T13:23:51.335Z,4.30
2023-04-01T13:26:26.736Z,4.80
2023-04-01T13:29:16.740Z,4.70
2023-04-01T13:32:13.804Z,5.28
2023-04-01T13:35:07.539Z,5.00
2023-04-01T13:37:57.933Z,6.03
2023-04-01T13:40:55.741Z,5.18
2023-04-01T13:43:38.306Z,5.47
2023-04-01T13:46:29.415Z,6.03
2023-04-01T13:49:21.476Z,6.30
2023-04-01T13:52:21.191Z,6.07
2023-04-01T13:55:20.907Z,5.82
2023-04-01T13:58:23.893Z,5.82
2023-04-01T14:01:06.682Z,5.75
2023-04-01T14:03:42.794Z,6.88
2023-04-01T14:06:39.338Z,6.40
2023-04-01T14:09:48.564Z,6.93
2023-04-01T14:12:54.628Z,7.75
2023-04-01T14:15:44.813Z,7.95
2023-04-01T14:18:32.080Z,6.82
2023-04-01T14:21:27.077Z,7.32
2023-04-01T14:24:28.609Z,6.22
2023-04-01T14:27:17.891Z,7.30
2023-04-01T14:30:04.049Z,7.90
2023-04-01T14:32:49.335Z,7.57
2023-04-01T14:35:37.097Z,7.20
2023-04-01T14:38:04.418Z,6.88
2023-04-01T14:40:53.521Z,8.00
2023-04-01T14:44:07.014Z,8.15
2023-04-01T14:46:49.582Z,8.07
2023-04-01T14:49:41.819Z,8.55
2023-04-01T14:52:23.123Z,7.50
2023-04-01T14:54:52.638Z,8.60
2023-04-01T14:57:27.909Z,9.35
2023-04-01T15:00:02.006Z,8.85
2023-04-01T15:02:57.874Z,8.88
2023-04-01T15:05:35.379Z,9.00
2023-04-01T15:08:12.500Z,9.50
2023-04-01T15:11:12.533Z,8.50
2023-04-01T15:13:59.752Z,8.88
2023-04-01T15:16:43.203Z,9.75
2023-04-01T15:19:10.554Z,8.80
2023-04-01T15:22:15.104Z,9.30
2023-04-01T15:24:49.227Z,9.32
2023-04-01T15:27:25.957Z,10.25
2023-04-01T15:30:18.446Z,11.27
2023-04-01T15:32:58.143Z,11.70
2023-04-01T15:36:21.809Z,9.73
2023-04-01T15:39:20.065Z,11.52
2023-04-01T15:42:07.914Z,9.60
2023-04-01T15:45:01.932Z,9.75
2023-04-01T15:47:43.717Z,10.68
2023-04-01T15:50:32.896Z,11.25
2023-04-01T15:53:14.471Z,9.68
2023-04-01T15:55:58.385Z,9.70
2023-04-01T15:58:41.122Z,10.80
2023-04-01T16:01:57.479Z,10.13
2023-04-01T16:04:49.514Z,10.13
2023-04-01T16:07:44.205Z,9.45
2023-04-01T16:10:13.599Z,9.02
2023-04-01T16:13:01.373Z,9.50
2023-04-01T16:15:47.886Z,8.90
2023-04-01T16:18:30.065Z,10.20
2023-04-01T16:21:15.966Z,8.77
2023-04-01T16:24:22.696Z,9.02
2023-04-01T16:27:06.833Z,8.70
2023-04-01T16:29:41.954Z,8.30
2023-04-01T16:32:35.657Z,9.10
2023-04-01T16:35:22.209Z,7.57
2023-04-01T16:38:04.987Z,8.43
2023-04-01T16:40:44.603Z,7.88
2023-04-01T16:43:20.035Z,9.45
2023-04-01T16:46:17.312Z,9.88
2023-04-01T16:49:17.773Z,9.25
2023-04-01T16:51:56.320Z,8.68
2023-04-01T16:55:04.058Z,9.00
2023-04-01T16:57:57.209Z,8.07
2023-04-01T17:00:52.889Z,9.10
2023-04-01T17:03:34.747Z,8.93
2023-04-01T17:06:08.255Z,7.88
2023-04-01T17:08:41.632Z,8.30
2023-04-01T17:11:24.034Z,8.73
2023-04-01T17:14:39.758Z,8.30
2023-04-01T17:17:13.129Z,8.57
2023-04-01T17:19:50.097Z,8.00
2023-04-01T17:22:28.804Z,8.20
2023-04-01T17:25:16.328Z,8.10
2023-04-01T17:28:12.066Z,8.98
2023-04-01T17:31:03.836Z,8.70
2023-04-01T17:33:37.449Z,8.02
2023-04-01T17:36:17.971Z,8.10
2023-04-01T17:39:21.569Z,9.88
2023-04-01T17:42:06.654Z,9.25
2023-04-01T17:44:49.300Z,9.52
2023-04-01T17:47:37.002Z,9.15
2023-04-01T17:50:19.359Z,8.43
2023-04-01T17:53:05.237Z,8.95
2023-04-01T17:55:51.639Z,8.88
2023-04-01T17:58:30.751Z,8.52
2023-04-01T18:01:14.954Z,9.40
2023-04-01T18:04:00.733Z,8.57
2023-04-01T18:06:53.035Z,8.85
2023-04-01T18:09:29.200Z,9.13
2023-04-01T18:12:08.805Z,8.05
2023-04-01T18:14:56.327Z,8.65
2023-04-01T18:18:14.572Z,8.45
2023-04-01T18:20:53.922Z,8.98
2023-04-01T18:23:55.662Z,9.32
2023-04-01T18:26:41.098Z,8.18
2023-04-01T18:29:19.152Z,9.50
2023-04-01T18:31:51.227Z,8.65
2023-04-01T18:34:52.766Z,8.90
2023-04-01T18:37:35.796Z,9.20
2023-04-01T18:40:26.746Z,9.77
2023-04-01T18:43:21.719Z,8.70
2023-04-01T18:46:18.221Z,8.43
2023-04-01T18:48:51.505Z,8.95
2023-04-01T18:51:35.915Z,9.02
2023-04-01T18:54:24.320Z,9.30
2023-04-01T18:56:51.879Z,8.60
2023-04-01T18:59:42.190Z,8.55
2023-04-01T19:02:35.837Z,8.73
2023-04-01T19:05:31.729Z,9.35
2023-04-01T19:08:33.833Z,9.20
2023-04-01T19:11:37.100Z,8.15
2023-04-01T19:14:33.491Z,8.65
2023-04-01T19:17:16.191Z,9.35
2023-04-01T19:19:59.797Z,9.60
2023-04-01T19:22:46.709Z,9.20
2023-04-01T19:25:32.663Z,9.15
2023-04-01T19:28:05.718Z,9.95
2023-04-01T19:33:22.216Z,9.48
2023-04-01T19:36:11.951Z,9.95
2023-04-01T19:38:43.406Z,9.65
2023-04-01T19:41:28.976Z,8.60
2023-04-01T19:44:08.886Z,9.93
2023-04-01T19:46:50.890Z,9.48
2023-04-01T19:49:45.767Z,9.32
2023-04-01T19:52:37.321Z,9.55
2023-04-01T19:55:33.193Z,9.40
2023-04-01T19:58:10.629Z,9.57
2023-04-01T20:00:59.792Z,9.50
2023-04-01T20:03:33.402Z,10.18
2023-04-01T20:06:38.525Z,9.85
2023-04-01T20:09:08.713Z,10.32
2023-04-01T20:12:05.372Z,10.30
2023-04-01T20:14:52.742Z,10.10
2023-04-01T20:17:32.281Z,10.48
2023-04-01T20:20:09.399Z,10.00
2023-04-01T20:22:36.840Z,10.82
2023-04-01T20:25:16.973Z,11.85
2023-04-01T20:28:15.852Z,11.45
2023-04-01T20:31:04.223Z,11.13
2023-04-01T20:34:00.138Z,10.65
2023-04-01T20:36:51.997Z,10.63
2023-04-01T20:39:50.467Z,10.25
2023-04-01T20:42:23.726Z,11.63
2023-04-01T20:44:54.069Z,10.55
2023-04-01T20:47:49.630Z,10.95
2023-04-01T20:50:17.157Z,11.98
2023-04-01T20:52:57.746Z,11.63
2023-04-01T20:56:02.690Z,10.98
2023-04-01T20:58:58.112Z,11.57
2023-04-01T21:01:48.946Z,11.63
2023-04-01T21:04:22.568Z,11.90
2023-04-01T21:07:23.130Z,12.15
2023-04-01T21:10:05.693Z,11.20
2023-04-01T21:12:41.932Z,11.07
2023-04-01T21:15:12.138Z,11.40
2023-04-01T21:17:56.818Z,11.35
2023-04-01T21:20:36.510Z,11.80
2023-04-01T21:23:36.549Z,10.65
2023-04-01T21:26:22.258Z,11.10
2023-04-01T21:29:13.631Z,10.45
2023-04-01T21:31:40.974Z,11.13
2023-04-01T21:34:32.958Z,11.10
2023-04-01T21:37:08.473Z,10.48
2023-04-01T21:39:49.409Z,10.93
2023-04-01T21:42:30.229Z,10.43
2023-04-01T21:45:34.009Z,11.07
2023-04-01T21:48:24.818Z,10.88
2023-04-01T21:51:10.924Z,10.80
2023-04-01T21:54:02.475Z,10.18
2023-04-01T21:56:51.785Z,11.30
2023-04-01T21:59:37.146Z,10.13
2023-04-01T22:02:23.380Z,10.32
2023-04-01T22:05:05.758Z,11.43
2023-04-01T22:07:53.992Z,10.23
2023-04-01T22:10:50.134Z,10.48
2023-04-01T22:13:34.412Z,10.75
2023-04-01T22:16:35.662Z,11.38
2023-04-01T22:19:29.365Z,11.38
2023-04-01T22:22:22.935Z,11.20
2023-04-01T22:24:56.522Z,10.95
2023-04-01T22:27:32.773Z,10.55
2023-04-01T22:30:19.735Z,11.82
2023-04-01T22:32:54.164Z,10.70
2023-04-01T22:35:56.856Z,11.02
2023-04-01T22:39:07.091Z,10.95
2023-04-01T22:41:37.393Z,11.18
2023-04-01T22:44:04.653Z,10.75
2023-04-01T22:47:16.186Z,11.20
2023-04-01T22:49:59.053Z,11.40
2023-04-01T22:52:38.553Z,11.48
2023-04-01T22:55:25.279Z,11.65
2023-04-01T22:58:04.092Z,12.38
2023-04-01T23:00:33.767Z,12.82
2023-04-01T23:03:14.685Z,13.02
2023-04-01T23:05:50.815Z,12.52
2023-04-01T23:08:55.638Z,12.43
2023-04-01T23:11:38.652Z,13.07
2023-04-01T23:14:21.775Z,12.93
2023-04-01T23:16:58.524Z,13.18
2023-04-01T23:19:51.785Z,14.45
2023-04-01T23:22:37.663Z,14.48
2023-04-01T23:25:27.763Z,12.98
2023-04-01T23:28:20.514Z,12.27
2023-04-01T23:30:50.574Z,14.38
2023-04-01T23:33:27.675Z,15.23
2023-04-01T23:35:54.973Z,14.93
2023-04-01T23:38:25.450Z,13.88
2023-04-01T23:40:55.010Z,14.57
2023-04-01T23:43:32.635Z,13.65
2023-04-01T23:46:08.547Z,13.52
2023-04-01T23:48:42.808Z,15.80
2023-04-01T23:51:21.958Z,13.55
2023-04-01T23:53:58.474Z,14.25
2023-04-01T23:56:35.103Z,13.75
2023-04-01T23:59:04.286Z,14.63
